sensor_id;sensor_type;location;lat;lon;timestamp;noise_LAeq;noise_LA_min;noise_LA_max;noise_LA01;noise_LA95
67298;Laerm;65443;51.436;5.978;2024-01-16T15:16:17;58.42;40.92;74.50;;
67298;Laerm;65443;51.436;5.978;2024-01-16T15:16:28;60.70;42.04;72.12;;
67298;Laerm;65443;51.436;5.978;2024-01-16T15:16:39;48.68;40.08;57.49;;
67298;Laerm;65443;51.436;5.978;2024-01-16T15:16:50;56.62;43.02;61.85;;
67298;Laerm;65443;51.436;5.978;2024-01-16T15:17:01;53.48;42.27;58.96;;
67298;Laerm;65443;51.436;5.978;2024-01-16T15:17:12;60.49;45.52;71.54;;
67298;Laerm;65443;51.436;5.978;2024-01-16T15:17:22;63.36;42.78;69.99;;
67298;Laerm;65443;51.436;5.978;2024-01-16T15:17:32;63.20;54.34;71.21;;
67298;Laerm;65443;51.436;5.978;2024-01-16T15:17:43;58.34;52.39;67.35;;
67298;Laerm;65443;51.436;5.978;2024-01-16T15:17:53;70.77;52.92;79.99;;
67298;Laerm;65443;51.436;5.978;2024-01-16T15:18:04;71.83;46.51;81.82;;
67298;Laerm;65443;51.436;5.978;2024-01-16T15:18:14;60.03;49.00;64.10;;
67298;Laerm;65443;51.436;5.978;2024-01-16T15:18:24;62.31;54.02;68.06;;
67298;Laerm;65443;51.436;5.978;2024-01-16T15:18:35;56.40;50.49;62.55;;
67298;Laerm;65443;51.436;5.978;2024-01-16T15:18:45;61.38;52.12;68.87;;
67298;Laerm;65443;51.436;5.978;2024-01-16T15:18:56;57.72;44.25;65.84;;
67298;Laerm;65443;51.436;5.978;2024-01-16T15:19:06;44.32;40.51;51.44;;
67298;Laerm;65443;51.436;5.978;2024-01-16T15:19:17;44.26;40.26;51.26;;
67298;Laerm;65443;51.436;5.978;2024-01-16T15:19:27;59.31;38.94;67.18;;
67298;Laerm;65443;51.436;5.978;2024-01-16T15:19:38;39.40;35.15;50.61;;
67298;Laerm;65443;51.436;5.978;2024-01-16T15:19:48;39.58;34.28;53.96;;
67298;Laerm;65443;51.436;5.978;2024-01-16T15:19:58;57.87;40.41;69.87;;
67298;Laerm;65443;51.436;5.978;2024-01-16T15:20:09;51.84;40.14;59.16;;
67298;Laerm;65443;51.436;5.978;2024-01-16T15:20:20;42.45;39.57;50.31;;
67298;Laerm;65443;51.436;5.978;2024-01-16T15:20:30;40.57;37.40;51.97;;
67298;Laerm;65443;51.436;5.978;2024-01-16T15:20:40;60.03;38.66;73.10;;
67298;Laerm;65443;51.436;5.978;2024-01-16T15:20:50;52.26;39.94;61.98;;
67298;Laerm;65443;51.436;5.978;2024-01-16T15:21:01;42.93;38.63;51.57;;
67298;Laerm;65443;51.436;5.978;2024-01-16T15:21:11;71.75;43.77;85.76;;
67298;Laerm;65443;51.436;5.978;2024-01-16T15:21:21;66.58;49.83;79.06;;
67298;Laerm;65443;51.436;5.978;2024-01-16T15:21:32;48.67;38.25;54.41;;
67298;Laerm;65443;51.436;5.978;2024-01-16T15:21:42;39.65;34.78;52.96;;
67298;Laerm;65443;51.436;5.978;2024-01-16T15:21:52;41.70;35.13;53.87;;
67298;Laerm;65443;51.436;5.978;2024-01-16T15:22:03;42.70;33.01;57.51;;
67298;Laerm;65443;51.436;5.978;2024-01-16T15:22:13;44.10;34.00;61.43;;
67298;Laerm;65443;51.436;5.978;2024-01-16T15:22:23;40.79;34.97;51.39;;
67298;Laerm;65443;51.436;5.978;2024-01-16T15:22:36;55.37;40.26;67.49;;
67298;Laerm;65443;51.436;5.978;2024-01-16T15:22:46;63.22;54.72;72.71;;
67298;Laerm;65443;51.436;5.978;2024-01-16T15:23:00;57.22;44.34;66.04;;
67298;Laerm;65443;51.436;5.978;2024-01-16T15:23:11;57.60;35.65;69.42;;
67298;Laerm;65443;51.436;5.978;2024-01-16T15:23:21;57.33;36.54;71.48;;
67298;Laerm;65443;51.436;5.978;2024-01-16T15:23:33;54.96;39.82;69.53;;
67298;Laerm;65443;51.436;5.978;2024-01-16T15:23:43;40.96;37.80;51.32;;
67298;Laerm;65443;51.436;5.978;2024-01-16T15:23:53;60.37;40.05;70.91;;
67298;Laerm;65443;51.436;5.978;2024-01-16T15:24:03;59.75;46.17;68.03;;
67298;Laerm;65443;51.436;5.978;2024-01-16T15:24:14;49.06;41.02;62.09;;
67298;Laerm;65443;51.436;5.978;2024-01-16T15:24:36;60.30;32.73;72.27;;
67298;Laerm;65443;51.436;5.978;2024-01-16T15:24:46;63.60;56.00;71.34;;
67298;Laerm;65443;51.436;5.978;2024-01-16T15:24:57;59.37;55.69;62.69;;
67298;Laerm;65443;51.436;5.978;2024-01-16T15:25:08;58.45;53.51;61.34;;
67298;Laerm;65443;51.436;5.978;2024-01-16T15:25:18;57.75;53.85;62.26;;
67298;Laerm;65443;51.436;5.978;2024-01-16T15:25:31;77.17;59.60;82.57;;
67298;Laerm;65443;51.436;5.978;2024-01-16T15:25:42;77.21;75.34;83.24;;
67298;Laerm;65443;51.436;5.978;2024-01-16T15:25:52;70.78;53.48;80.29;;
67298;Laerm;65443;51.436;5.978;2024-01-16T15:26:02;58.67;50.18;64.59;;
67298;Laerm;65443;51.436;5.978;2024-01-16T15:26:14;60.88;45.22;68.84;;
67298;Laerm;65443;51.436;5.978;2024-01-16T15:26:30;46.38;41.72;51.79;;
67298;Laerm;65443;51.436;5.978;2024-01-16T15:26:41;55.96;40.12;66.96;;
67298;Laerm;65443;51.436;5.978;2024-01-16T15:26:54;38.40;34.78;42.84;;
67298;Laerm;65443;51.436;5.978;2024-01-16T15:27:05;39.98;36.10;46.46;;
67298;Laerm;65443;51.436;5.978;2024-01-16T15:27:16;59.77;45.03;74.49;;
67298;Laerm;65443;51.436;5.978;2024-01-16T15:27:26;53.94;44.56;61.20;;
67298;Laerm;65443;51.436;5.978;2024-01-16T15:27:37;66.08;52.25;72.43;;
67298;Laerm;65443;51.436;5.978;2024-01-16T15:27:47;61.16;48.41;69.37;;
67298;Laerm;65443;51.436;5.978;2024-01-16T15:28:03;54.93;44.25;66.36;;
67298;Laerm;65443;51.436;5.978;2024-01-16T15:28:13;52.88;45.55;60.31;;
67298;Laerm;65443;51.436;5.978;2024-01-16T15:28:23;63.07;52.78;69.84;;
67298;Laerm;65443;51.436;5.978;2024-01-16T15:28:34;60.37;44.97;70.80;;
67298;Laerm;65443;51.436;5.978;2024-01-16T15:28:44;53.73;44.27;61.51;;
67298;Laerm;65443;51.436;5.978;2024-01-16T15:28:54;55.65;47.08;59.79;;
67298;Laerm;65443;51.436;5.978;2024-01-16T15:29:05;43.10;38.62;49.28;;
67298;Laerm;65443;51.436;5.978;2024-01-16T15:29:16;60.02;39.35;72.10;;
67298;Laerm;65443;51.436;5.978;2024-01-16T15:29:26;62.14;42.15;72.15;;
67298;Laerm;65443;51.436;5.978;2024-01-16T15:29:37;41.67;38.42;49.29;;
67298;Laerm;65443;51.436;5.978;2024-01-16T15:29:47;51.71;39.44;58.11;;
67298;Laerm;65443;51.436;5.978;2024-01-16T15:29:58;56.83;44.53;68.03;;
67298;Laerm;65443;51.436;5.978;2024-01-16T15:30:09;56.22;50.50;61.42;;
67298;Laerm;65443;51.436;5.978;2024-01-16T15:30:21;57.54;44.25;66.66;;
67298;Laerm;65443;51.436;5.978;2024-01-16T15:30:31;57.81;43.80;63.56;;
67298;Laerm;65443;51.436;5.978;2024-01-16T15:30:42;56.03;40.45;65.56;;
67298;Laerm;65443;51.436;5.978;2024-01-16T15:30:55;41.22;36.71;54.43;;
67298;Laerm;65443;51.436;5.978;2024-01-16T15:31:05;61.97;40.82;74.87;;
67298;Laerm;65443;51.436;5.978;2024-01-16T15:31:18;57.09;45.05;67.59;;
67298;Laerm;65443;51.436;5.978;2024-01-16T15:31:29;48.55;42.26;57.35;;
67298;Laerm;65443;51.436;5.978;2024-01-16T15:31:39;58.78;43.11;65.35;;
67298;Laerm;65443;51.436;5.978;2024-01-16T15:31:49;42.55;38.94;52.76;;
67298;Laerm;65443;51.436;5.978;2024-01-16T15:32:03;49.32;37.59;64.37;;
67298;Laerm;65443;51.436;5.978;2024-01-16T15:32:13;60.72;49.83;71.31;;
67298;Laerm;65443;51.436;5.978;2024-01-16T15:32:24;67.09;55.20;74.97;;
67298;Laerm;65443;51.436;5.978;2024-01-16T15:32:34;61.82;45.78;73.07;;
67298;Laerm;65443;51.436;5.978;2024-01-16T15:32:44;45.73;40.40;51.95;;
67298;Laerm;65443;51.436;5.978;2024-01-16T15:32:55;56.03;42.93;61.56;;
67298;Laerm;65443;51.436;5.978;2024-01-16T15:33:05;56.97;45.94;63.29;;
67298;Laerm;65443;51.436;5.978;2024-01-16T15:33:15;46.15;35.96;53.69;;
67298;Laerm;65443;51.436;5.978;2024-01-16T15:33:26;37.37;34.21;48.88;;
67298;Laerm;65443;51.436;5.978;2024-01-16T15:33:37;39.53;35.86;49.98;;
67298;Laerm;65443;51.436;5.978;2024-01-16T15:33:47;45.83;37.99;54.54;;
67298;Laerm;65443;51.436;5.978;2024-01-16T15:33:57;54.36;44.00;59.30;;
67298;Laerm;65443;51.436;5.978;2024-01-16T15:34:09;53.66;47.67;58.56;;
67298;Laerm;65443;51.436;5.978;2024-01-16T15:34:19;56.09;48.78;62.67;;
67298;Laerm;65443;51.436;5.978;2024-01-16T15:34:29;68.64;48.64;75.67;;
67298;Laerm;65443;51.436;5.978;2024-01-16T15:34:40;72.96;50.58;81.09;;
67298;Laerm;65443;51.436;5.978;2024-01-16T15:34:51;62.70;53.72;71.16;;
67298;Laerm;65443;51.436;5.978;2024-01-16T15:35:01;49.61;43.51;55.15;;
67298;Laerm;65443;51.436;5.978;2024-01-16T15:35:11;62.28;44.12;78.10;;
67298;Laerm;65443;51.436;5.978;2024-01-16T15:35:21;53.76;41.60;63.04;;
67298;Laerm;65443;51.436;5.978;2024-01-16T15:35:32;54.09;40.87;64.17;;
67298;Laerm;65443;51.436;5.978;2024-01-16T15:35:43;54.93;39.26;63.33;;
67298;Laerm;65443;51.436;5.978;2024-01-16T15:35:53;40.99;37.05;47.40;;
67298;Laerm;65443;51.436;5.978;2024-01-16T15:36:03;64.98;41.50;75.79;;
67298;Laerm;65443;51.436;5.978;2024-01-16T15:36:14;46.11;36.65;56.84;;
67298;Laerm;65443;51.436;5.978;2024-01-16T15:36:24;36.98;35.26;39.00;;
67298;Laerm;65443;51.436;5.978;2024-01-16T15:36:35;36.88;34.39;44.78;;
67298;Laerm;65443;51.436;5.978;2024-01-16T15:36:47;41.44;36.55;49.12;;
67298;Laerm;65443;51.436;5.978;2024-01-16T15:36:58;60.64;41.78;71.08;;
67298;Laerm;65443;51.436;5.978;2024-01-16T15:37:08;60.19;49.73;71.46;;
67298;Laerm;65443;51.436;5.978;2024-01-16T15:37:19;55.83;51.09;63.27;;
67298;Laerm;65443;51.436;5.978;2024-01-16T15:37:29;58.08;46.18;64.45;;
67298;Laerm;65443;51.436;5.978;2024-01-16T15:37:41;60.10;45.26;71.26;;
67298;Laerm;65443;51.436;5.978;2024-01-16T15:37:54;59.51;42.49;71.15;;
67298;Laerm;65443;51.436;5.978;2024-01-16T15:38:04;42.64;39.31;50.90;;
67298;Laerm;65443;51.436;5.978;2024-01-16T15:38:14;52.23;40.30;63.90;;
67298;Laerm;65443;51.436;5.978;2024-01-16T15:38:25;61.71;52.34;70.47;;
67298;Laerm;65443;51.436;5.978;2024-01-16T15:38:35;65.13;55.80;74.54;;
67298;Laerm;65443;51.436;5.978;2024-01-16T15:38:45;59.89;50.76;67.02;;
67298;Laerm;65443;51.436;5.978;2024-01-16T15:38:55;61.05;50.57;75.15;;
67298;Laerm;65443;51.436;5.978;2024-01-16T15:39:06;48.89;42.34;55.97;;
67298;Laerm;65443;51.436;5.978;2024-01-16T15:39:17;44.63;40.63;47.55;;
67298;Laerm;65443;51.436;5.978;2024-01-16T15:39:27;60.48;42.98;66.46;;
67298;Laerm;65443;51.436;5.978;2024-01-16T15:39:37;55.02;41.22;63.61;;
67298;Laerm;65443;51.436;5.978;2024-01-16T15:39:48;39.85;37.41;42.96;;
67298;Laerm;65443;51.436;5.978;2024-01-16T15:39:58;38.65;36.11;41.23;;
67298;Laerm;65443;51.436;5.978;2024-01-16T15:40:09;37.86;34.24;47.19;;
67298;Laerm;65443;51.436;5.978;2024-01-16T15:40:21;37.81;34.42;43.64;;
67298;Laerm;65443;51.436;5.978;2024-01-16T15:40:33;35.99;33.35;41.10;;
67298;Laerm;65443;51.436;5.978;2024-01-16T15:40:43;38.45;34.37;41.95;;
67298;Laerm;65443;51.436;5.978;2024-01-16T15:40:53;51.60;41.59;57.60;;
67298;Laerm;65443;51.436;5.978;2024-01-16T15:41:03;62.34;54.03;68.77;;
67298;Laerm;65443;51.436;5.978;2024-01-16T15:41:14;48.41;43.35;57.65;;
67298;Laerm;65443;51.436;5.978;2024-01-16T15:41:24;44.80;41.41;51.58;;
67298;Laerm;65443;51.436;5.978;2024-01-16T15:41:34;53.68;49.04;58.78;;
67298;Laerm;65443;51.436;5.978;2024-01-16T15:41:45;69.97;56.80;75.57;;
67298;Laerm;65443;51.436;5.978;2024-01-16T15:41:55;73.79;55.47;80.38;;
67298;Laerm;65443;51.436;5.978;2024-01-16T15:42:06;54.42;48.77;59.92;;
67298;Laerm;65443;51.436;5.978;2024-01-16T15:42:16;62.00;53.39;68.28;;
67298;Laerm;65443;51.436;5.978;2024-01-16T15:42:27;56.16;47.69;62.87;;
67298;Laerm;65443;51.436;5.978;2024-01-16T15:42:38;45.80;40.66;52.66;;
67298;Laerm;65443;51.436;5.978;2024-01-16T15:42:49;59.71;41.52;72.39;;
67298;Laerm;65443;51.436;5.978;2024-01-16T15:42:59;51.94;37.30;70.11;;
67298;Laerm;65443;51.436;5.978;2024-01-16T15:43:09;66.44;58.75;73.84;;
67298;Laerm;65443;51.436;5.978;2024-01-16T15:43:20;62.09;53.29;72.25;;
67298;Laerm;65443;51.436;5.978;2024-01-16T15:43:30;60.63;54.10;68.55;;
67298;Laerm;65443;51.436;5.978;2024-01-16T15:43:40;74.79;52.94;80.74;;
67298;Laerm;65443;51.436;5.978;2024-01-16T15:43:51;58.83;47.85;70.31;;
67298;Laerm;65443;51.436;5.978;2024-01-16T15:44:01;47.78;41.46;56.17;;
67298;Laerm;65443;51.436;5.978;2024-01-16T15:44:11;48.75;42.11;57.01;;
67298;Laerm;65443;51.436;5.978;2024-01-16T15:44:21;62.97;41.23;75.64;;
67298;Laerm;65443;51.436;5.978;2024-01-16T15:44:32;44.56;39.18;53.34;;
67298;Laerm;65443;51.436;5.978;2024-01-16T15:44:42;42.80;36.19;51.15;;
67298;Laerm;65443;51.436;5.978;2024-01-16T15:44:53;41.30;37.67;45.95;;
67298;Laerm;65443;51.436;5.978;2024-01-16T15:45:07;45.85;39.12;52.94;;
67298;Laerm;65443;51.436;5.978;2024-01-16T15:45:17;55.97;47.22;61.73;;
67298;Laerm;65443;51.436;5.978;2024-01-16T15:45:28;52.38;46.30;58.40;;
67298;Laerm;65443;51.436;5.978;2024-01-16T15:45:38;57.87;52.65;61.73;;
67298;Laerm;65443;51.436;5.978;2024-01-16T15:45:48;63.73;47.89;77.14;;
67298;Laerm;65443;51.436;5.978;2024-01-16T15:45:59;53.26;45.15;63.20;;
67298;Laerm;65443;51.436;5.978;2024-01-16T15:46:10;61.87;45.19;70.60;;
67298;Laerm;65443;51.436;5.978;2024-01-16T15:46:20;64.47;42.63;73.65;;
67298;Laerm;65443;51.436;5.978;2024-01-16T15:46:30;64.91;54.94;73.40;;
67298;Laerm;65443;51.436;5.978;2024-01-16T15:46:53;58.99;54.68;62.91;;
67298;Laerm;65443;51.436;5.978;2024-01-16T15:47:03;73.94;44.75;83.37;;
67298;Laerm;65443;51.436;5.978;2024-01-16T15:47:14;60.59;45.18;70.14;;
67298;Laerm;65443;51.436;5.978;2024-01-16T15:47:24;47.78;44.45;51.78;;
67298;Laerm;65443;51.436;5.978;2024-01-16T15:47:35;57.06;44.13;65.33;;
67298;Laerm;65443;51.436;5.978;2024-01-16T15:47:45;55.11;43.77;65.54;;
67298;Laerm;65443;51.436;5.978;2024-01-16T15:48:01;46.40;42.16;52.61;;
67298;Laerm;65443;51.436;5.978;2024-01-16T15:48:12;46.57;40.61;55.38;;
67298;Laerm;65443;51.436;5.978;2024-01-16T15:48:22;65.72;49.20;73.57;;
67298;Laerm;65443;51.436;5.978;2024-01-16T15:48:33;44.67;38.55;49.77;;
67298;Laerm;65443;51.436;5.978;2024-01-16T15:48:43;40.47;37.15;44.76;;
67298;Laerm;65443;51.436;5.978;2024-01-16T15:48:54;48.84;41.89;55.13;;
67298;Laerm;65443;51.436;5.978;2024-01-16T15:49:06;48.58;42.84;56.82;;
67298;Laerm;65443;51.436;5.978;2024-01-16T15:49:16;54.43;44.59;60.04;;
67298;Laerm;65443;51.436;5.978;2024-01-16T15:49:30;53.80;45.79;61.09;;
67298;Laerm;65443;51.436;5.978;2024-01-16T15:49:45;58.21;49.93;69.86;;
67298;Laerm;65443;51.436;5.978;2024-01-16T15:49:55;62.01;46.36;72.02;;
67298;Laerm;65443;51.436;5.978;2024-01-16T15:50:06;54.02;47.07;66.72;;
67298;Laerm;65443;51.436;5.978;2024-01-16T15:50:16;55.36;45.03;61.32;;
67298;Laerm;65443;51.436;5.978;2024-01-16T15:50:27;43.93;39.21;51.59;;
67298;Laerm;65443;51.436;5.978;2024-01-16T15:50:38;39.75;35.36;44.89;;
67298;Laerm;65443;51.436;5.978;2024-01-16T15:50:49;63.37;35.39;74.24;;
67298;Laerm;65443;51.436;5.978;2024-01-16T15:50:59;64.14;56.36;71.52;;
67298;Laerm;65443;51.436;5.978;2024-01-16T15:51:10;57.02;54.59;59.50;;
67298;Laerm;65443;51.436;5.978;2024-01-16T15:51:20;57.42;53.97;59.72;;
67298;Laerm;65443;51.436;5.978;2024-01-16T15:51:31;56.61;53.28;58.53;;
67298;Laerm;65443;51.436;5.978;2024-01-16T15:51:41;79.60;55.50;84.47;;
67298;Laerm;65443;51.436;5.978;2024-01-16T15:51:52;81.77;78.63;84.87;;
67298;Laerm;65443;51.436;5.978;2024-01-16T15:52:03;74.06;45.60;84.13;;
67298;Laerm;65443;51.436;5.978;2024-01-16T15:52:13;47.27;44.56;55.27;;
67298;Laerm;65443;51.436;5.978;2024-01-16T15:52:23;54.33;44.19;62.02;;
67298;Laerm;65443;51.436;5.978;2024-01-16T15:52:34;62.26;45.44;72.11;;
67298;Laerm;65443;51.436;5.978;2024-01-16T15:52:44;64.87;56.22;72.58;;
67298;Laerm;65443;51.436;5.978;2024-01-16T15:52:55;58.74;54.55;61.98;;
67298;Laerm;65443;51.436;5.978;2024-01-16T15:53:05;58.29;53.45;61.32;;
67298;Laerm;65443;51.436;5.978;2024-01-16T15:53:16;60.98;55.50;71.26;;
67298;Laerm;65443;51.436;5.978;2024-01-16T15:53:26;79.40;70.51;85.17;;
67298;Laerm;65443;51.436;5.978;2024-01-16T15:53:36;78.92;75.91;81.77;;
67298;Laerm;65443;51.436;5.978;2024-01-16T15:53:47;74.91;55.10;81.04;;
67298;Laerm;65443;51.436;5.978;2024-01-16T15:53:57;55.78;51.25;59.86;;
67298;Laerm;65443;51.436;5.978;2024-01-16T15:54:10;49.82;42.22;55.33;;
67298;Laerm;65443;51.436;5.978;2024-01-16T15:54:20;63.57;41.52;73.95;;
67298;Laerm;65443;51.436;5.978;2024-01-16T15:54:31;62.45;54.61;72.21;;
67298;Laerm;65443;51.436;5.978;2024-01-16T15:54:42;58.21;53.87;62.56;;
67298;Laerm;65443;51.436;5.978;2024-01-16T15:54:52;58.43;53.74;66.04;;
67298;Laerm;65443;51.436;5.978;2024-01-16T15:55:03;66.38;54.21;77.05;;
67298;Laerm;65443;51.436;5.978;2024-01-16T15:55:14;73.07;53.99;76.95;;
67298;Laerm;65443;51.436;5.978;2024-01-16T15:55:24;54.81;48.34;60.09;;
67298;Laerm;65443;51.436;5.978;2024-01-16T15:55:34;62.93;48.20;72.17;;
67298;Laerm;65443;51.436;5.978;2024-01-16T15:55:45;63.53;50.65;71.39;;
67298;Laerm;65443;51.436;5.978;2024-01-16T15:55:55;61.92;43.72;73.86;;
67298;Laerm;65443;51.436;5.978;2024-01-16T15:56:05;43.59;41.14;46.10;;
67298;Laerm;65443;51.436;5.978;2024-01-16T15:56:15;57.36;44.92;63.54;;
67298;Laerm;65443;51.436;5.978;2024-01-16T15:56:26;64.90;50.62;75.50;;
67298;Laerm;65443;51.436;5.978;2024-01-16T15:56:36;60.80;46.34;75.34;;
67298;Laerm;65443;51.436;5.978;2024-01-16T15:56:47;45.78;37.93;55.46;;
67298;Laerm;65443;51.436;5.978;2024-01-16T15:56:57;40.97;37.13;46.53;;
67298;Laerm;65443;51.436;5.978;2024-01-16T15:57:08;58.02;41.64;69.88;;
67298;Laerm;65443;51.436;5.978;2024-01-16T15:57:18;39.70;36.82;44.60;;
67298;Laerm;65443;51.436;5.978;2024-01-16T15:57:29;50.95;38.75;59.68;;
67298;Laerm;65443;51.436;5.978;2024-01-16T15:57:39;57.42;44.34;63.95;;
67298;Laerm;65443;51.436;5.978;2024-01-16T15:57:49;56.98;44.40;69.10;;
67298;Laerm;65443;51.436;5.978;2024-01-16T15:57:59;45.91;38.06;51.44;;
67298;Laerm;65443;51.436;5.978;2024-01-16T15:58:10;43.19;38.83;54.85;;
67298;Laerm;65443;51.436;5.978;2024-01-16T15:58:20;55.09;38.46;64.11;;
67298;Laerm;65443;51.436;5.978;2024-01-16T15:58:31;59.61;43.01;69.49;;
67298;Laerm;65443;51.436;5.978;2024-01-16T15:58:42;48.28;44.13;51.55;;
67298;Laerm;65443;51.436;5.978;2024-01-16T15:58:52;61.04;46.94;67.23;;
67298;Laerm;65443;51.436;5.978;2024-01-16T15:59:02;52.44;47.05;56.41;;
67298;Laerm;65443;51.436;5.978;2024-01-16T15:59:13;42.61;38.80;49.82;;
67298;Laerm;65443;51.436;5.978;2024-01-16T15:59:23;40.90;38.31;47.68;;
67298;Laerm;65443;51.436;5.978;2024-01-16T15:59:33;57.12;40.87;66.40;;
67298;Laerm;65443;51.436;5.978;2024-01-16T15:59:44;59.82;40.47;70.29;;
67298;Laerm;65443;51.436;5.978;2024-01-16T15:59:54;38.56;35.45;43.60;;
67298;Laerm;65443;51.436;5.978;2024-01-16T16:00:06;45.65;38.49;52.85;;
67298;Laerm;65443;51.436;5.978;2024-01-16T16:00:19;65.89;49.93;74.77;;
67298;Laerm;65443;51.436;5.978;2024-01-16T16:00:30;46.96;42.50;52.08;;
67298;Laerm;65443;51.436;5.978;2024-01-16T16:00:40;53.52;44.26;61.23;;
67298;Laerm;65443;51.436;5.978;2024-01-16T16:00:51;56.44;45.46;60.66;;
67298;Laerm;65443;51.436;5.978;2024-01-16T16:01:01;43.61;40.02;48.04;;
67298;Laerm;65443;51.436;5.978;2024-01-16T16:01:12;43.71;41.00;45.75;;
67298;Laerm;65443;51.436;5.978;2024-01-16T16:01:22;60.77;44.60;73.07;;
67298;Laerm;65443;51.436;5.978;2024-01-16T16:01:32;58.14;48.41;66.47;;
67298;Laerm;65443;51.436;5.978;2024-01-16T16:01:43;54.08;41.80;63.22;;
67298;Laerm;65443;51.436;5.978;2024-01-16T16:01:53;56.28;41.64;64.01;;
67298;Laerm;65443;51.436;5.978;2024-01-16T16:02:04;57.10;45.22;63.26;;
67298;Laerm;65443;51.436;5.978;2024-01-16T16:02:14;58.68;41.22;69.87;;
67298;Laerm;65443;51.436;5.978;2024-01-16T16:02:24;44.54;40.71;50.93;;
67298;Laerm;65443;51.436;5.978;2024-01-16T16:02:35;42.47;38.82;45.91;;
67298;Laerm;65443;51.436;5.978;2024-01-16T16:02:46;56.87;40.51;67.30;;
67298;Laerm;65443;51.436;5.978;2024-01-16T16:02:59;50.78;41.97;59.27;;
67298;Laerm;65443;51.436;5.978;2024-01-16T16:03:09;57.34;51.01;60.99;;
67298;Laerm;65443;51.436;5.978;2024-01-16T16:03:20;63.19;47.56;77.33;;
67298;Laerm;65443;51.436;5.978;2024-01-16T16:03:31;64.65;47.58;76.78;;
67298;Laerm;65443;51.436;5.978;2024-01-16T16:03:41;55.58;42.77;64.54;;
67298;Laerm;65443;51.436;5.978;2024-01-16T16:03:52;45.23;41.69;49.26;;
67298;Laerm;65443;51.436;5.978;2024-01-16T16:04:02;59.87;46.63;69.32;;
67298;Laerm;65443;51.436;5.978;2024-01-16T16:04:12;53.02;45.71;62.24;;
67298;Laerm;65443;51.436;5.978;2024-01-16T16:04:23;60.53;42.86;74.48;;
67298;Laerm;65443;51.436;5.978;2024-01-16T16:04:35;56.54;44.73;66.52;;
67298;Laerm;65443;51.436;5.978;2024-01-16T16:04:45;45.10;40.51;50.96;;
67298;Laerm;65443;51.436;5.978;2024-01-16T16:04:56;44.29;40.07;49.86;;
67298;Laerm;65443;51.436;5.978;2024-01-16T16:05:07;65.23;49.36;73.48;;
67298;Laerm;65443;51.436;5.978;2024-01-16T16:05:18;59.11;48.39;65.05;;
67298;Laerm;65443;51.436;5.978;2024-01-16T16:05:28;63.73;50.68;71.58;;
67298;Laerm;65443;51.436;5.978;2024-01-16T16:05:38;67.35;48.30;73.90;;
67298;Laerm;65443;51.436;5.978;2024-01-16T16:05:49;44.31;40.57;49.97;;
67298;Laerm;65443;51.436;5.978;2024-01-16T16:05:59;59.85;42.86;68.21;;
67298;Laerm;65443;51.436;5.978;2024-01-16T16:06:09;58.62;50.97;67.21;;
67298;Laerm;65443;51.436;5.978;2024-01-16T16:06:20;46.06;40.99;53.04;;
67298;Laerm;65443;51.436;5.978;2024-01-16T16:06:37;40.46;35.13;45.54;;
67298;Laerm;65443;51.436;5.978;2024-01-16T16:06:47;41.87;36.35;48.33;;
67298;Laerm;65443;51.436;5.978;2024-01-16T16:06:58;50.07;44.97;55.26;;
67298;Laerm;65443;51.436;5.978;2024-01-16T16:07:08;68.20;55.73;79.43;;
67298;Laerm;65443;51.436;5.978;2024-01-16T16:07:19;53.61;46.89;60.45;;
67298;Laerm;65443;51.436;5.978;2024-01-16T16:07:29;64.48;48.90;73.46;;
67298;Laerm;65443;51.436;5.978;2024-01-16T16:07:39;58.49;50.57;64.03;;
67298;Laerm;65443;51.436;5.978;2024-01-16T16:07:50;52.87;45.22;60.68;;
67298;Laerm;65443;51.436;5.978;2024-01-16T16:08:00;51.57;41.77;66.60;;
67298;Laerm;65443;51.436;5.978;2024-01-16T16:08:10;49.52;43.16;58.51;;
67298;Laerm;65443;51.436;5.978;2024-01-16T16:08:20;63.29;47.23;77.24;;
67298;Laerm;65443;51.436;5.978;2024-01-16T16:08:31;57.56;45.52;63.71;;
67298;Laerm;65443;51.436;5.978;2024-01-16T16:08:41;62.78;47.91;71.56;;
67298;Laerm;65443;51.436;5.978;2024-01-16T16:08:51;61.07;43.65;69.91;;
67298;Laerm;65443;51.436;5.978;2024-01-16T16:09:04;63.51;56.62;71.42;;
67298;Laerm;65443;51.436;5.978;2024-01-16T16:09:16;58.62;54.22;65.51;;
67298;Laerm;65443;51.436;5.978;2024-01-16T16:09:27;57.19;53.93;60.06;;
67298;Laerm;65443;51.436;5.978;2024-01-16T16:09:39;70.81;53.93;80.23;;
67298;Laerm;65443;51.436;5.978;2024-01-16T16:09:50;78.70;76.12;81.90;;
67298;Laerm;65443;51.436;5.978;2024-01-16T16:10:00;77.85;62.14;82.91;;
67298;Laerm;65443;51.436;5.978;2024-01-16T16:10:10;56.41;46.86;63.82;;
67298;Laerm;65443;51.436;5.978;2024-01-16T16:10:21;63.79;47.83;72.60;;
67298;Laerm;65443;51.436;5.978;2024-01-16T16:10:31;59.47;45.06;69.03;;
67298;Laerm;65443;51.436;5.978;2024-01-16T16:10:41;52.64;44.28;58.14;;
67298;Laerm;65443;51.436;5.978;2024-01-16T16:10:52;52.95;44.66;59.03;;
67298;Laerm;65443;51.436;5.978;2024-01-16T16:11:02;62.00;43.74;71.55;;
67298;Laerm;65443;51.436;5.978;2024-01-16T16:11:12;45.21;41.40;51.42;;
67298;Laerm;65443;51.436;5.978;2024-01-16T16:11:23;64.72;48.11;73.91;;
67298;Laerm;65443;51.436;5.978;2024-01-16T16:11:34;49.86;39.12;55.89;;
67298;Laerm;65443;51.436;5.978;2024-01-16T16:11:45;39.73;37.39;43.65;;
67298;Laerm;65443;51.436;5.978;2024-01-16T16:11:55;47.03;39.49;58.61;;
67298;Laerm;65443;51.436;5.978;2024-01-16T16:12:06;61.60;53.99;69.86;;
67298;Laerm;65443;51.436;5.978;2024-01-16T16:12:17;56.91;45.71;65.41;;
67298;Laerm;65443;51.436;5.978;2024-01-16T16:12:28;63.17;50.60;71.78;;
67298;Laerm;65443;51.436;5.978;2024-01-16T16:12:39;56.27;47.83;64.03;;
67298;Laerm;65443;51.436;5.978;2024-01-16T16:12:49;67.64;46.06;74.74;;
67298;Laerm;65443;51.436;5.978;2024-01-16T16:12:59;43.98;40.27;49.57;;
67298;Laerm;65443;51.436;5.978;2024-01-16T16:13:09;60.13;47.82;66.34;;
67298;Laerm;65443;51.436;5.978;2024-01-16T16:13:20;61.28;47.22;73.31;;
67298;Laerm;65443;51.436;5.978;2024-01-16T16:13:31;66.43;59.69;72.80;;
67298;Laerm;65443;51.436;5.978;2024-01-16T16:13:42;59.11;52.34;69.22;;
67298;Laerm;65443;51.436;5.978;2024-01-16T16:13:52;72.32;52.10;82.33;;
67298;Laerm;65443;51.436;5.978;2024-01-16T16:14:03;78.24;54.50;83.81;;
67298;Laerm;65443;51.436;5.978;2024-01-16T16:14:14;54.25;42.44;60.18;;
67298;Laerm;65443;51.436;5.978;2024-01-16T16:14:25;58.05;42.26;69.79;;
67298;Laerm;65443;51.436;5.978;2024-01-16T16:14:37;61.79;50.83;70.10;;
67298;Laerm;65443;51.436;5.978;2024-01-16T16:14:50;57.43;42.10;70.81;;
67298;Laerm;65443;51.436;5.978;2024-01-16T16:15:01;55.53;41.31;68.32;;
67298;Laerm;65443;51.436;5.978;2024-01-16T16:15:11;63.23;39.91;73.75;;
67298;Laerm;65443;51.436;5.978;2024-01-16T16:15:21;41.42;36.75;52.33;;
67298;Laerm;65443;51.436;5.978;2024-01-16T16:15:31;60.75;43.94;72.76;;
67298;Laerm;65443;51.436;5.978;2024-01-16T16:15:42;39.14;35.41;45.17;;
67298;Laerm;65443;51.436;5.978;2024-01-16T16:15:52;63.13;34.73;71.40;;
67298;Laerm;65443;51.436;5.978;2024-01-16T16:16:04;64.83;56.05;72.80;;
67298;Laerm;65443;51.436;5.978;2024-01-16T16:16:14;58.21;54.33;61.24;;
67298;Laerm;65443;51.436;5.978;2024-01-16T16:16:24;73.88;54.57;82.44;;
67298;Laerm;65443;51.436;5.978;2024-01-16T16:16:35;70.77;45.04;81.84;;